createdAt,value
2017-08-23T00:00:02.480Z,63
2017-08-23T00:01:10.567Z,62
2017-08-23T00:02:18.653Z,63
2017-08-23T00:03:26.743Z,62
2017-08-23T00:04:34.823Z,62
2017-08-23T00:05:42.910Z,62
2017-08-23T00:06:50.998Z,62
2017-08-23T00:07:59.084Z,62
2017-08-23T00:09:07.171Z,62
2017-08-23T00:10:15.256Z,63
2017-08-23T00:11:23.343Z,63
2017-08-23T00:12:31.428Z,63
2017-08-23T00:13:39.513Z,63
2017-08-23T00:14:47.624Z,62
2017-08-23T00:15:55.693Z,63
2017-08-23T00:17:03.782Z,63
2017-08-23T00:18:11.868Z,63
2017-08-23T00:19:20.144Z,62
2017-08-23T00:20:28.055Z,63
2017-08-23T00:21:36.143Z,62
2017-08-23T00:22:44.213Z,63
2017-08-23T00:23:52.295Z,62
2017-08-23T00:25:00.384Z,63
2017-08-23T00:26:08.474Z,63
2017-08-23T00:27:16.557Z,63
2017-08-23T00:28:24.642Z,62
2017-08-23T00:29:32.729Z,63
2017-08-23T00:30:40.815Z,63
2017-08-23T00:31:48.898Z,63
2017-08-23T00:32:56.983Z,63
2017-08-23T00:34:05.070Z,63
2017-08-23T00:35:13.157Z,63
2017-08-23T00:36:21.243Z,63
2017-08-23T00:37:29.329Z,63
2017-08-23T00:38:37.421Z,63
2017-08-23T00:39:45.502Z,63
2017-08-23T00:40:53.587Z,63
2017-08-23T00:42:01.673Z,63
2017-08-23T00:43:09.758Z,63
2017-08-23T00:44:17.845Z,63
2017-08-23T00:45:25.932Z,63
2017-08-23T00:46:34.196Z,63
2017-08-23T00:47:42.143Z,63
2017-08-23T00:48:50.228Z,63
2017-08-23T00:49:58.316Z,63
2017-08-23T00:51:06.401Z,62
2017-08-23T00:52:14.487Z,63
2017-08-23T00:53:22.573Z,63
2017-08-23T00:54:30.668Z,63
2017-08-23T00:55:38.764Z,63
2017-08-23T00:56:46.850Z,63
2017-08-23T00:57:54.937Z,63
2017-08-23T00:59:03.021Z,63
2017-08-23T01:00:11.103Z,63
2017-08-23T01:01:19.193Z,63
2017-08-23T01:02:27.280Z,63
2017-08-23T01:03:35.391Z,63
2017-08-23T01:04:43.454Z,63
2017-08-23T01:05:51.542Z,63
2017-08-23T01:06:59.654Z,63
2017-08-23T01:08:07.712Z,63
2017-08-23T01:09:15.802Z,63
2017-08-23T01:10:23.893Z,63
2017-08-23T01:11:31.977Z,62
2017-08-23T01:12:40.087Z,63
2017-08-23T01:13:48.154Z,62
2017-08-23T01:14:56.241Z,62
2017-08-23T01:16:04.399Z,62
2017-08-23T01:17:12.483Z,62
2017-08-23T01:18:20.572Z,62
2017-08-23T01:19:28.655Z,62
2017-08-23T01:20:36.741Z,62
2017-08-23T01:21:44.845Z,63
2017-08-23T01:22:52.924Z,62
2017-08-23T01:24:01.011Z,62
2017-08-23T01:25:09.097Z,63
2017-08-23T01:26:17.272Z,63
2017-08-23T01:27:25.424Z,62
2017-08-23T01:28:33.445Z,62
2017-08-23T01:29:41.530Z,63
2017-08-23T01:30:49.621Z,63
2017-08-23T01:31:57.703Z,63
2017-08-23T01:33:05.794Z,62
2017-08-23T01:34:13.879Z,63
2017-08-23T01:35:21.964Z,63
2017-08-23T01:36:30.049Z,62
2017-08-23T01:37:38.142Z,62
2017-08-23T01:38:46.224Z,62
2017-08-23T01:39:54.310Z,62
2017-08-23T01:41:02.396Z,62
2017-08-23T01:42:10.481Z,62
2017-08-23T01:43:18.568Z,62
2017-08-23T01:44:26.653Z,63
2017-08-23T01:45:34.748Z,63
2017-08-23T01:46:42.823Z,63
2017-08-23T01:47:50.909Z,63
2017-08-23T01:48:58.994Z,63
2017-08-23T01:50:07.083Z,62
2017-08-23T01:51:15.175Z,62
2017-08-23T01:52:23.262Z,62
2017-08-23T01:53:31.350Z,63
2017-08-23T01:54:39.433Z,63
2017-08-23T01:55:47.529Z,63
2017-08-23T01:56:55.622Z,62
2017-08-23T01:58:03.702Z,63
2017-08-23T01:59:11.789Z,63
2017-08-23T02:00:19.874Z,63
2017-08-23T02:01:27.998Z,63
2017-08-23T02:02:36.045Z,63
2017-08-23T02:03:44.132Z,63
2017-08-23T02:04:52.236Z,62
2017-08-23T02:06:00.326Z,63
2017-08-23T02:07:08.407Z,62
2017-08-23T02:08:16.494Z,62
2017-08-23T02:09:24.579Z,63
2017-08-23T02:10:32.665Z,62
2017-08-23T02:11:40.751Z,62
2017-08-23T02:12:48.839Z,63
2017-08-23T02:13:56.924Z,63
2017-08-23T02:15:05.013Z,63
2017-08-23T02:16:13.097Z,63
2017-08-23T02:17:21.184Z,62
2017-08-23T02:18:29.266Z,63
2017-08-23T02:19:37.356Z,62
2017-08-23T02:20:45.442Z,62
2017-08-23T02:21:53.526Z,63
2017-08-23T02:23:01.611Z,62
2017-08-23T02:24:09.706Z,63
2017-08-23T02:25:17.786Z,63
2017-08-23T02:26:25.872Z,63
2017-08-23T02:27:33.965Z,63
2017-08-23T02:28:42.049Z,63
2017-08-23T02:29:50.142Z,63
2017-08-23T02:30:58.222Z,62
2017-08-23T02:32:06.309Z,63
2017-08-23T02:33:14.395Z,62
2017-08-23T02:34:22.485Z,62
2017-08-23T02:35:30.567Z,62
2017-08-23T02:36:38.651Z,63
2017-08-23T02:37:46.739Z,63
2017-08-23T02:38:54.828Z,63
2017-08-23T02:40:02.951Z,62
2017-08-23T02:41:11.037Z,63
2017-08-23T02:42:19.121Z,63
2017-08-23T02:43:27.221Z,63
2017-08-23T02:44:35.296Z,63
2017-08-23T02:45:43.379Z,62
2017-08-23T02:46:51.468Z,63
2017-08-23T02:47:59.553Z,63
2017-08-23T02:49:07.638Z,63
2017-08-23T02:50:15.726Z,63
2017-08-23T02:51:23.812Z,63
2017-08-23T02:52:31.903Z,63
2017-08-23T02:53:39.983Z,63
2017-08-23T02:54:48.070Z,63
2017-08-23T02:55:56.157Z,63
2017-08-23T02:57:04.241Z,63
2017-08-23T02:58:12.329Z,63
2017-08-23T02:59:20.415Z,63
2017-08-23T03:00:28.502Z,62
2017-08-23T03:01:36.588Z,63
2017-08-23T03:02:44.689Z,62
2017-08-23T03:03:52.774Z,62
2017-08-23T03:05:00.879Z,63
2017-08-23T03:06:08.949Z,63
2017-08-23T03:07:17.036Z,63
2017-08-23T03:08:25.121Z,63
2017-08-23T03:09:33.225Z,62
2017-08-23T03:10:41.294Z,63
2017-08-23T03:11:49.381Z,62
2017-08-23T03:12:57.467Z,63
2017-08-23T03:14:05.554Z,63
2017-08-23T03:15:13.639Z,63
2017-08-23T03:16:21.724Z,63
2017-08-23T03:17:29.823Z,62
2017-08-23T03:18:37.908Z,63
2017-08-23T03:19:45.991Z,63
2017-08-23T03:20:54.181Z,63
2017-08-23T03:22:02.162Z,63
2017-08-23T03:23:10.248Z,63
2017-08-23T03:24:18.333Z,62
2017-08-23T03:25:26.419Z,63
2017-08-23T03:26:34.509Z,63
2017-08-23T03:27:42.593Z,63
2017-08-23T03:28:50.681Z,62
2017-08-23T03:29:58.765Z,63
2017-08-23T03:31:06.852Z,63
2017-08-23T03:32:14.936Z,62
2017-08-23T03:33:23.022Z,63
2017-08-23T03:34:31.113Z,63
2017-08-23T03:35:39.196Z,63
2017-08-23T03:36:47.296Z,63
2017-08-23T03:37:55.377Z,63
2017-08-23T03:39:03.460Z,63
2017-08-23T03:40:11.546Z,62
2017-08-23T03:41:19.632Z,63
2017-08-23T03:42:27.719Z,63
2017-08-23T03:43:35.806Z,63
2017-08-23T03:44:43.900Z,63
2017-08-23T03:45:51.977Z,63
2017-08-23T03:47:00.072Z,63
2017-08-23T03:48:08.150Z,63
2017-08-23T03:49:16.237Z,63
2017-08-23T03:50:24.323Z,63
2017-08-23T03:51:32.413Z,63
2017-08-23T03:52:40.496Z,63
2017-08-23T03:53:48.581Z,63
2017-08-23T03:54:56.677Z,63
2017-08-23T03:56:04.755Z,63
2017-08-23T03:57:12.840Z,63
2017-08-23T03:58:20.924Z,63
2017-08-23T03:59:29.010Z,63
2017-08-23T04:00:37.100Z,63
2017-08-23T04:01:45.193Z,63
2017-08-23T04:02:53.274Z,63
2017-08-23T04:04:01.365Z,63
2017-08-23T04:05:09.446Z,62
2017-08-23T04:06:17.530Z,62
2017-08-23T04:07:25.632Z,63
2017-08-23T04:08:33.705Z,62
2017-08-23T04:09:41.793Z,63
2017-08-23T04:10:49.872Z,63
2017-08-23T04:11:57.960Z,63
2017-08-23T04:13:06.053Z,63
2017-08-23T04:14:14.139Z,62
2017-08-23T04:15:22.225Z,63
2017-08-23T04:16:30.396Z,63
2017-08-23T04:17:38.396Z,63
2017-08-23T04:18:46.489Z,62
2017-08-23T04:19:54.568Z,63
2017-08-23T04:21:02.656Z,62
2017-08-23T04:22:10.747Z,62
2017-08-23T04:23:18.827Z,63
2017-08-23T04:24:26.920Z,62
2017-08-23T04:25:35.001Z,63
2017-08-23T04:26:43.090Z,63
2017-08-23T04:27:51.178Z,63
2017-08-23T04:28:59.257Z,63
2017-08-23T04:30:07.342Z,63
2017-08-23T04:31:15.430Z,63
2017-08-23T04:32:23.516Z,63
2017-08-23T04:33:31.603Z,63
2017-08-23T04:34:39.687Z,64
2017-08-23T04:35:47.774Z,64
2017-08-23T04:36:55.867Z,64
2017-08-23T04:38:03.953Z,64
2017-08-23T04:39:12.038Z,64
2017-08-23T04:40:20.135Z,64
2017-08-23T04:41:28.222Z,64
2017-08-23T04:42:36.314Z,64
2017-08-23T04:43:44.400Z,64
2017-08-23T04:44:52.478Z,64
2017-08-23T04:46:00.564Z,64
2017-08-23T04:47:08.895Z,64
2017-08-23T04:48:17.186Z,64
2017-08-23T04:49:24.826Z,64
2017-08-23T04:50:32.916Z,64
2017-08-23T04:51:41.005Z,64
2017-08-23T04:52:49.089Z,64
2017-08-23T04:53:57.174Z,64
2017-08-23T04:55:05.262Z,64
2017-08-23T04:56:13.350Z,64
2017-08-23T04:57:21.433Z,64
2017-08-23T04:58:29.520Z,64
2017-08-23T04:59:37.613Z,64
2017-08-23T05:00:45.698Z,64
2017-08-23T05:01:53.784Z,64
2017-08-23T05:03:01.875Z,64
2017-08-23T05:04:09.957Z,64
2017-08-23T05:05:18.044Z,63
2017-08-23T05:06:26.129Z,64
2017-08-23T05:07:34.234Z,64
2017-08-23T05:08:42.301Z,64
2017-08-23T05:09:50.386Z,63
2017-08-23T05:10:58.473Z,63
2017-08-23T05:12:06.560Z,63
2017-08-23T05:13:14.646Z,64
2017-08-23T05:14:22.731Z,64
2017-08-23T05:15:30.818Z,64
2017-08-23T05:16:38.904Z,64
2017-08-23T05:17:46.991Z,64
2017-08-23T05:18:55.074Z,64
2017-08-23T05:20:03.158Z,63
2017-08-23T05:21:11.253Z,63
2017-08-23T05:22:19.340Z,64
2017-08-23T05:23:27.467Z,64
2017-08-23T05:24:35.506Z,64
2017-08-23T05:25:43.591Z,64
2017-08-23T05:26:51.678Z,64
2017-08-23T05:27:59.763Z,64
2017-08-23T05:29:07.851Z,64
2017-08-23T05:30:15.933Z,64
2017-08-23T05:31:24.024Z,64
2017-08-23T05:32:32.108Z,64
2017-08-23T05:33:40.204Z,64
2017-08-23T05:34:48.280Z,64
2017-08-23T05:35:56.374Z,63
2017-08-23T05:37:04.459Z,64
2017-08-23T05:38:12.539Z,64
2017-08-23T05:39:20.625Z,64
2017-08-23T05:40:28.715Z,64
2017-08-23T05:41:36.799Z,64
2017-08-23T05:42:44.883Z,64
2017-08-23T05:43:52.968Z,64
2017-08-23T05:45:02.439Z,65
2017-08-23T05:46:09.254Z,64
2017-08-23T05:47:17.340Z,64
2017-08-23T05:48:25.427Z,64
2017-08-23T05:49:33.511Z,65
2017-08-23T05:50:41.597Z,64
2017-08-23T05:51:49.680Z,64
2017-08-23T05:52:57.768Z,64
2017-08-23T05:54:05.864Z,65
2017-08-23T05:55:13.941Z,64
2017-08-23T05:56:22.027Z,64
2017-08-23T05:57:30.113Z,64
2017-08-23T05:58:38.199Z,64
2017-08-23T05:59:46.288Z,64
2017-08-23T06:00:54.369Z,65
2017-08-23T06:02:02.489Z,64
2017-08-23T06:03:10.580Z,64
2017-08-23T06:04:18.669Z,64
2017-08-23T06:05:26.748Z,64
2017-08-23T06:06:34.832Z,64
2017-08-23T06:07:42.920Z,65
2017-08-23T06:08:51.005Z,65
2017-08-23T06:09:59.091Z,64
2017-08-23T06:11:07.176Z,64
2017-08-23T06:12:15.263Z,64
2017-08-23T06:13:23.349Z,64
2017-08-23T06:14:31.432Z,64
2017-08-23T06:15:39.520Z,64
2017-08-23T06:16:47.610Z,64
2017-08-23T06:17:55.692Z,64
2017-08-23T06:19:03.779Z,64
2017-08-23T06:20:11.865Z,64
2017-08-23T06:21:19.955Z,64
2017-08-23T06:22:28.043Z,64
2017-08-23T06:23:36.126Z,64
2017-08-23T06:24:44.211Z,64
2017-08-23T06:25:52.298Z,64
2017-08-23T06:27:00.386Z,64
2017-08-23T06:28:08.471Z,64
2017-08-23T06:29:16.561Z,64
2017-08-23T06:30:24.644Z,64
2017-08-23T06:31:32.733Z,64
2017-08-23T06:32:40.815Z,64
2017-08-23T06:33:48.907Z,64
2017-08-23T06:34:56.985Z,63
2017-08-23T06:36:05.073Z,64
2017-08-23T06:37:13.159Z,63
2017-08-23T06:38:21.245Z,64
2017-08-23T06:39:29.334Z,63
2017-08-23T06:40:37.418Z,63
2017-08-23T06:41:45.501Z,63
2017-08-23T06:42:53.597Z,63
2017-08-23T06:44:01.683Z,64
2017-08-23T06:45:09.770Z,64
2017-08-23T06:46:17.856Z,64
2017-08-23T06:47:25.942Z,64
2017-08-23T06:48:34.030Z,64
2017-08-23T06:49:42.124Z,64
2017-08-23T06:50:50.220Z,64
2017-08-23T06:51:58.285Z,64
2017-08-23T06:53:06.370Z,64
2017-08-23T06:54:14.459Z,64
2017-08-23T06:55:22.545Z,64
2017-08-23T06:56:30.629Z,64
2017-08-23T06:57:38.717Z,64
2017-08-23T06:58:46.804Z,64
2017-08-23T06:59:54.906Z,64
2017-08-23T07:01:02.976Z,63
2017-08-23T07:02:11.067Z,64
2017-08-23T07:03:19.157Z,63
2017-08-23T07:04:27.242Z,63
2017-08-23T07:05:35.328Z,63
2017-08-23T07:06:43.413Z,63
2017-08-23T07:07:51.500Z,63
2017-08-23T07:08:59.587Z,63
2017-08-23T07:10:07.672Z,63
2017-08-23T07:11:15.756Z,63
2017-08-23T07:12:23.845Z,63
2017-08-23T07:13:31.932Z,63
2017-08-23T07:14:40.018Z,63
2017-08-23T07:15:48.108Z,63
2017-08-23T07:16:56.192Z,63
2017-08-23T07:18:04.302Z,63
2017-08-23T07:19:12.387Z,63
2017-08-23T07:20:20.477Z,63
2017-08-23T07:21:28.561Z,63
2017-08-23T07:22:36.648Z,63
2017-08-23T07:23:44.733Z,63
2017-08-23T07:24:52.818Z,63
2017-08-23T07:26:00.906Z,63
2017-08-23T07:27:08.990Z,63
2017-08-23T07:28:17.098Z,63
2017-08-23T07:29:25.164Z,63
2017-08-23T07:30:33.250Z,63
2017-08-23T07:31:41.335Z,63
2017-08-23T07:32:49.422Z,63
2017-08-23T07:33:57.506Z,63
2017-08-23T07:35:05.593Z,63
2017-08-23T07:36:13.680Z,63
2017-08-23T07:37:21.766Z,63
2017-08-23T07:38:29.852Z,63
2017-08-23T07:39:37.946Z,63
2017-08-23T07:40:46.032Z,63
2017-08-23T07:41:54.126Z,63
2017-08-23T07:43:02.231Z,63
2017-08-23T07:44:10.304Z,63
2017-08-23T07:45:18.388Z,64
2017-08-23T07:46:26.476Z,63
2017-08-23T07:47:34.562Z,64
2017-08-23T07:48:42.649Z,63
2017-08-23T07:49:50.733Z,63
2017-08-23T07:50:58.830Z,63
2017-08-23T07:52:06.914Z,64
2017-08-23T07:53:15.000Z,63
2017-08-23T07:54:23.088Z,63
2017-08-23T07:55:31.172Z,63
2017-08-23T07:56:39.256Z,63
2017-08-23T07:57:47.348Z,63
2017-08-23T07:58:55.431Z,63
2017-08-23T08:00:03.518Z,64
2017-08-23T08:01:11.601Z,63
2017-08-23T08:02:19.687Z,64
2017-08-23T08:03:27.773Z,64
2017-08-23T08:04:35.861Z,63
2017-08-23T08:05:43.947Z,63
2017-08-23T08:06:52.032Z,63
2017-08-23T08:08:00.119Z,63
2017-08-23T08:09:08.204Z,63
2017-08-23T08:10:16.289Z,64
2017-08-23T08:11:24.375Z,63
2017-08-23T08:12:32.460Z,63
2017-08-23T08:13:40.544Z,64
2017-08-23T08:14:48.632Z,64
2017-08-23T08:15:56.717Z,64
2017-08-23T08:17:04.817Z,64
2017-08-23T08:18:12.889Z,64
2017-08-23T08:19:20.976Z,63
2017-08-23T08:20:29.064Z,63
2017-08-23T08:21:37.146Z,64
2017-08-23T08:22:45.234Z,64
2017-08-23T08:23:53.319Z,64
2017-08-23T08:25:01.403Z,64
2017-08-23T08:26:09.488Z,64
2017-08-23T08:27:17.575Z,64
2017-08-23T08:28:25.662Z,63
2017-08-23T08:29:33.746Z,63
2017-08-23T08:30:41.832Z,64
2017-08-23T08:31:49.919Z,64
2017-08-23T08:32:58.004Z,63
2017-08-23T08:34:06.286Z,64
2017-08-23T08:35:14.178Z,64
2017-08-23T08:36:22.262Z,64
2017-08-23T08:37:30.356Z,64
2017-08-23T08:38:38.442Z,64
2017-08-23T08:39:46.530Z,64
2017-08-23T08:40:54.613Z,64
2017-08-23T08:42:02.700Z,63
2017-08-23T08:43:10.788Z,64
2017-08-23T08:44:18.871Z,64
2017-08-23T08:45:26.965Z,63
2017-08-23T08:46:35.052Z,63
2017-08-23T08:47:43.140Z,64
2017-08-23T08:48:51.226Z,63
2017-08-23T08:49:59.313Z,64
2017-08-23T08:51:07.397Z,64
2017-08-23T08:52:15.488Z,64
2017-08-23T08:53:23.572Z,64
2017-08-23T08:54:31.656Z,65
2017-08-23T08:55:39.743Z,65
2017-08-23T08:56:47.831Z,65
2017-08-23T08:57:55.916Z,65
2017-08-23T08:59:04.003Z,65
2017-08-23T09:00:12.089Z,65
2017-08-23T09:01:20.183Z,66
2017-08-23T09:02:28.270Z,65
2017-08-23T09:03:36.357Z,65
2017-08-23T09:04:44.444Z,65
2017-08-23T09:05:52.530Z,66
2017-08-23T09:07:00.617Z,65
2017-08-23T09:08:08.706Z,65
2017-08-23T09:09:16.789Z,66
2017-08-23T09:10:24.876Z,65
2017-08-23T09:11:32.962Z,65
2017-08-23T09:12:41.057Z,66
2017-08-23T09:13:49.144Z,65
2017-08-23T09:14:57.247Z,65
2017-08-23T09:16:05.316Z,65
2017-08-23T09:17:13.401Z,65
2017-08-23T09:18:21.488Z,65
2017-08-23T09:19:29.573Z,65
2017-08-23T09:20:37.667Z,66
2017-08-23T09:21:45.749Z,66
2017-08-23T09:22:53.835Z,65
2017-08-23T09:24:01.921Z,66
2017-08-23T09:25:10.005Z,66
2017-08-23T09:26:18.094Z,66
2017-08-23T09:27:26.202Z,65
2017-08-23T09:28:34.275Z,65
2017-08-23T09:29:42.362Z,66
2017-08-23T09:30:50.517Z,66
2017-08-23T09:31:58.602Z,66
2017-08-23T09:33:06.691Z,66
2017-08-23T09:34:14.780Z,66
2017-08-23T09:35:22.866Z,66
2017-08-23T09:36:30.953Z,66
2017-08-23T09:37:39.037Z,65
2017-08-23T09:38:47.127Z,66
2017-08-23T09:39:55.221Z,66
2017-08-23T09:41:03.309Z,66
2017-08-23T09:42:11.395Z,66
2017-08-23T09:43:19.482Z,66
2017-08-23T09:44:27.567Z,66
2017-08-23T09:45:35.656Z,66
2017-08-23T09:46:43.749Z,66
2017-08-23T09:47:51.826Z,65
2017-08-23T09:48:59.914Z,66
2017-08-23T09:50:07.998Z,66
2017-08-23T09:51:16.089Z,66
2017-08-23T09:52:24.175Z,66
2017-08-23T09:53:32.265Z,66
2017-08-23T09:54:40.349Z,66
2017-08-23T09:55:48.438Z,66
2017-08-23T09:56:56.529Z,66
2017-08-23T09:58:04.610Z,66
2017-08-23T09:59:12.697Z,66
2017-08-23T10:00:20.784Z,66
2017-08-23T10:01:28.873Z,66
2017-08-23T10:02:36.962Z,66
2017-08-23T10:03:45.044Z,66
2017-08-23T10:04:53.131Z,66
2017-08-23T10:06:01.230Z,66
2017-08-23T10:07:09.302Z,66
2017-08-23T10:08:17.389Z,66
2017-08-23T10:09:26.135Z,66
2017-08-23T10:10:34.221Z,66
2017-08-23T10:11:42.306Z,66
2017-08-23T10:12:50.393Z,66
2017-08-23T10:13:58.489Z,66
2017-08-23T10:15:06.568Z,66
2017-08-23T10:16:14.670Z,66
2017-08-23T10:17:22.752Z,66
2017-08-23T10:18:30.841Z,66
2017-08-23T10:19:38.925Z,66
2017-08-23T10:20:47.013Z,66
2017-08-23T10:21:55.100Z,66
2017-08-23T10:23:03.189Z,66
2017-08-23T10:24:11.274Z,66
2017-08-23T10:25:19.361Z,66
2017-08-23T10:26:27.447Z,66
2017-08-23T10:27:35.532Z,65
2017-08-23T10:28:43.620Z,65
2017-08-23T10:29:51.722Z,65
2017-08-23T10:30:59.808Z,65
2017-08-23T10:32:07.894Z,65
2017-08-23T10:33:15.982Z,65
2017-08-23T10:34:24.068Z,65
2017-08-23T10:35:32.155Z,65
2017-08-23T10:36:40.245Z,65
2017-08-23T10:37:48.351Z,65
2017-08-23T10:38:56.435Z,65
2017-08-23T10:40:04.525Z,65
2017-08-23T10:41:12.609Z,65
2017-08-23T10:42:20.697Z,65
2017-08-23T10:43:28.784Z,65
2017-08-23T10:44:36.870Z,65
2017-08-23T10:45:44.966Z,65
2017-08-23T10:46:53.075Z,65
2017-08-23T10:48:01.164Z,65
2017-08-23T10:49:09.247Z,65
2017-08-23T10:50:17.337Z,65
2017-08-23T10:51:25.428Z,65
2017-08-23T10:52:33.514Z,65
2017-08-23T10:53:41.599Z,65
2017-08-23T10:54:49.685Z,65
2017-08-23T10:55:57.771Z,65
2017-08-23T10:57:05.859Z,65
2017-08-23T10:58:13.948Z,65
2017-08-23T10:59:22.030Z,66
2017-08-23T11:00:30.127Z,65
2017-08-23T11:01:38.209Z,65
2017-08-23T11:02:46.295Z,65
2017-08-23T11:03:54.381Z,65
2017-08-23T11:05:02.576Z,65
2017-08-23T11:06:10.678Z,65
2017-08-23T11:07:18.764Z,66
2017-08-23T11:08:26.843Z,66
2017-08-23T11:09:34.939Z,65
2017-08-23T11:10:43.028Z,65
2017-08-23T11:11:51.112Z,65
2017-08-23T11:12:59.202Z,66
2017-08-23T11:14:07.285Z,66
2017-08-23T11:15:15.370Z,65
2017-08-23T11:16:23.458Z,66
2017-08-23T11:17:31.547Z,66
2017-08-23T11:18:39.633Z,66
2017-08-23T11:19:47.720Z,66
2017-08-23T11:20:55.807Z,66
2017-08-23T11:22:03.894Z,66
2017-08-23T11:23:11.983Z,66
2017-08-23T11:24:20.070Z,66
2017-08-23T11:25:28.155Z,66
2017-08-23T11:26:36.243Z,66
2017-08-23T11:27:44.334Z,66
2017-08-23T11:28:52.420Z,66
2017-08-23T11:30:00.504Z,66
2017-08-23T11:31:08.594Z,66
2017-08-23T11:32:16.681Z,66
2017-08-23T11:33:24.909Z,66
2017-08-23T11:34:32.858Z,66
2017-08-23T11:35:41.107Z,66
2017-08-23T11:36:49.029Z,66
2017-08-23T11:37:57.116Z,66
2017-08-23T11:39:06.349Z,66
2017-08-23T11:40:14.519Z,66
2017-08-23T11:41:21.378Z,66
2017-08-23T11:42:29.537Z,66
2017-08-23T11:43:38.172Z,66
2017-08-23T11:44:45.639Z,66
2017-08-23T11:45:53.728Z,66
2017-08-23T11:47:01.820Z,66
2017-08-23T11:48:09.905Z,66
2017-08-23T11:49:18.022Z,66
2017-08-23T11:50:26.083Z,66
2017-08-23T11:51:34.175Z,66
2017-08-23T11:52:42.255Z,66
2017-08-23T11:53:50.338Z,66
2017-08-23T11:54:58.436Z,66
2017-08-23T11:56:06.530Z,66
2017-08-23T11:57:14.618Z,66
2017-08-23T11:58:22.734Z,66
2017-08-23T11:59:30.792Z,66
2017-08-23T12:00:38.878Z,66
2017-08-23T12:01:47.017Z,66
2017-08-23T12:02:55.075Z,66
2017-08-23T12:04:03.142Z,66
2017-08-23T12:05:11.229Z,66
2017-08-23T12:06:19.320Z,66
2017-08-23T12:07:27.405Z,66
2017-08-23T12:08:35.517Z,66
2017-08-23T12:09:43.609Z,66
2017-08-23T12:10:51.720Z,66
2017-08-23T12:11:59.781Z,66
2017-08-23T12:13:07.873Z,66
2017-08-23T12:14:15.956Z,66
2017-08-23T12:15:24.042Z,66
2017-08-23T12:16:32.165Z,66
2017-08-23T12:17:40.230Z,66
2017-08-23T12:18:48.306Z,66
2017-08-23T12:19:56.395Z,66
2017-08-23T12:21:04.480Z,66
2017-08-23T12:22:12.568Z,66
2017-08-23T12:23:20.654Z,66
2017-08-23T12:24:28.741Z,66
2017-08-23T12:25:36.829Z,66
2017-08-23T12:26:44.943Z,66
2017-08-23T12:27:53.002Z,66
2017-08-23T12:29:01.092Z,66
2017-08-23T12:30:09.179Z,66
2017-08-23T12:31:17.268Z,66
2017-08-23T12:32:25.376Z,66
2017-08-23T12:33:33.466Z,66
2017-08-23T12:34:41.553Z,66
2017-08-23T12:35:49.639Z,66
2017-08-23T12:36:57.730Z,66
2017-08-23T12:38:05.829Z,66
2017-08-23T12:39:13.909Z,66
2017-08-23T12:40:22.015Z,66
2017-08-23T12:41:30.087Z,66
2017-08-23T12:42:38.182Z,66
2017-08-23T12:43:46.340Z,66
2017-08-23T12:44:54.513Z,66
2017-08-23T12:46:02.459Z,66
2017-08-23T12:47:10.540Z,66
2017-08-23T12:48:18.629Z,66
2017-08-23T12:49:26.724Z,66
2017-08-23T12:50:34.804Z,66
2017-08-23T12:51:42.889Z,66
2017-08-23T12:52:50.978Z,66
2017-08-23T12:53:59.065Z,66
2017-08-23T12:55:07.154Z,66
2017-08-23T12:56:15.239Z,66
2017-08-23T12:57:23.328Z,66
2017-08-23T12:58:31.419Z,66
2017-08-23T12:59:39.504Z,66
2017-08-23T13:00:47.593Z,66
2017-08-23T13:01:55.680Z,65
2017-08-23T13:03:03.767Z,66
2017-08-23T13:04:11.856Z,66
2017-08-23T13:05:20.068Z,66
2017-08-23T13:06:28.153Z,66
2017-08-23T13:07:36.239Z,66
2017-08-23T13:08:44.327Z,66
2017-08-23T13:09:52.447Z,66
2017-08-23T13:11:00.501Z,66
2017-08-23T13:12:08.590Z,66
2017-08-23T13:13:16.678Z,66
2017-08-23T13:14:24.768Z,66
2017-08-23T13:15:32.862Z,66
2017-08-23T13:16:40.950Z,66
2017-08-23T13:17:49.038Z,66
2017-08-23T13:18:57.126Z,66
2017-08-23T13:20:05.213Z,66
2017-08-23T13:21:13.308Z,66
2017-08-23T13:22:21.394Z,66
2017-08-23T13:23:29.483Z,66
2017-08-23T13:24:37.623Z,67
2017-08-23T13:25:45.660Z,66
2017-08-23T13:26:53.745Z,66
2017-08-23T13:28:01.836Z,66
2017-08-23T13:29:09.922Z,66
2017-08-23T13:30:18.096Z,66
2017-08-23T13:31:26.099Z,66
2017-08-23T13:32:34.188Z,66
2017-08-23T13:33:42.274Z,66
2017-08-23T13:34:50.365Z,66
2017-08-23T13:35:58.450Z,66
2017-08-23T13:37:06.548Z,66
2017-08-23T13:38:14.634Z,66
2017-08-23T13:39:22.723Z,66
2017-08-23T13:40:30.812Z,66
2017-08-23T13:41:38.899Z,66
2017-08-23T13:42:46.986Z,66
2017-08-23T13:43:55.074Z,66
2017-08-23T13:45:03.161Z,66
2017-08-23T13:46:11.251Z,66
2017-08-23T13:47:19.338Z,66
2017-08-23T13:48:27.425Z,67
2017-08-23T13:49:35.511Z,66
2017-08-23T13:50:43.601Z,67
2017-08-23T13:51:51.688Z,66
2017-08-23T13:52:59.777Z,67
2017-08-23T13:54:07.868Z,67
2017-08-23T13:55:15.956Z,67
2017-08-23T13:56:24.058Z,67
2017-08-23T13:57:32.139Z,67
2017-08-23T13:58:40.227Z,67
2017-08-23T13:59:48.315Z,67
2017-08-23T14:00:56.404Z,67
2017-08-23T14:02:04.490Z,67
2017-08-23T14:03:12.576Z,67
2017-08-23T14:04:20.666Z,67
2017-08-23T14:05:28.755Z,67
2017-08-23T14:06:36.843Z,67
2017-08-23T14:07:44.929Z,67
2017-08-23T14:08:53.019Z,67
2017-08-23T14:10:01.295Z,67
2017-08-23T14:11:09.196Z,67
2017-08-23T14:12:17.293Z,67
2017-08-23T14:13:25.406Z,67
2017-08-23T14:14:33.492Z,67
2017-08-23T14:15:41.580Z,66
2017-08-23T14:16:49.665Z,67
2017-08-23T14:17:57.756Z,67
2017-08-23T14:19:05.878Z,67
2017-08-23T14:20:13.936Z,67
2017-08-23T14:21:22.023Z,67
2017-08-23T14:22:30.139Z,67
2017-08-23T14:23:38.197Z,67
2017-08-23T14:24:46.283Z,67
2017-08-23T14:25:54.375Z,67
2017-08-23T14:27:02.465Z,67
2017-08-23T14:28:10.548Z,67
2017-08-23T14:29:18.637Z,67
2017-08-23T14:30:26.749Z,67
2017-08-23T14:31:34.812Z,67
2017-08-23T14:32:42.906Z,67
2017-08-23T14:33:50.988Z,67
2017-08-23T14:34:59.076Z,67
2017-08-23T14:36:07.162Z,67
2017-08-23T14:37:15.251Z,67
2017-08-23T14:38:23.341Z,68
2017-08-23T14:39:31.428Z,67
2017-08-23T14:40:39.516Z,67
2017-08-23T14:41:47.606Z,67
2017-08-23T14:42:55.699Z,67
2017-08-23T14:44:03.781Z,67
2017-08-23T14:45:11.867Z,68
2017-08-23T14:46:19.957Z,67
2017-08-23T14:47:28.047Z,67
2017-08-23T14:48:36.138Z,68
2017-08-23T14:49:44.251Z,67
2017-08-23T14:50:52.316Z,67
2017-08-23T14:52:00.403Z,68
2017-08-23T14:53:08.488Z,68
2017-08-23T14:54:16.579Z,67
2017-08-23T14:55:24.667Z,68
2017-08-23T14:56:32.755Z,68
2017-08-23T14:57:40.844Z,68
2017-08-23T14:58:48.934Z,67
2017-08-23T14:59:57.021Z,68
2017-08-23T15:01:05.112Z,68
2017-08-23T15:02:13.200Z,68
2017-08-23T15:03:21.287Z,68
2017-08-23T15:04:29.375Z,68
2017-08-23T15:05:37.464Z,68
2017-08-23T15:06:45.552Z,68
2017-08-23T15:07:53.642Z,68
2017-08-23T15:09:01.724Z,68
2017-08-23T15:10:09.819Z,68
2017-08-23T15:11:17.906Z,68
2017-08-23T15:12:26.052Z,68
2017-08-23T15:13:34.088Z,68
2017-08-23T15:14:42.176Z,68
2017-08-23T15:15:50.690Z,68
2017-08-23T15:16:58.358Z,69
2017-08-23T15:18:06.591Z,69
2017-08-23T15:19:14.529Z,69
2017-08-23T15:20:22.620Z,69
2017-08-23T15:21:30.703Z,68
2017-08-23T15:22:38.796Z,68
2017-08-23T15:23:46.880Z,68
2017-08-23T15:24:54.970Z,68
2017-08-23T15:26:03.058Z,68
2017-08-23T15:27:11.147Z,68
2017-08-23T15:28:19.244Z,68
2017-08-23T15:29:27.332Z,68
2017-08-23T15:30:35.421Z,68
2017-08-23T15:31:43.509Z,69
2017-08-23T15:32:51.669Z,69
2017-08-23T15:33:59.685Z,68
2017-08-23T15:35:07.778Z,68
2017-08-23T15:36:15.871Z,68
2017-08-23T15:37:23.958Z,68
2017-08-23T15:38:32.048Z,69
2017-08-23T15:39:40.143Z,70
2017-08-23T15:40:48.224Z,69
2017-08-23T15:41:56.313Z,70
2017-08-23T15:43:04.403Z,70
2017-08-23T15:44:12.488Z,70
2017-08-23T15:45:20.578Z,70
2017-08-23T15:46:28.667Z,70
2017-08-23T15:47:36.760Z,69
2017-08-23T15:48:44.846Z,69
2017-08-23T15:49:52.930Z,69
2017-08-23T15:51:01.021Z,69
2017-08-23T15:52:09.108Z,69
2017-08-23T15:53:17.207Z,69
2017-08-23T15:54:25.289Z,69
2017-08-23T15:55:33.378Z,69
2017-08-23T15:56:41.460Z,69
2017-08-23T15:57:49.548Z,69
2017-08-23T15:58:57.636Z,69
2017-08-23T16:00:05.725Z,69
2017-08-23T16:01:13.814Z,69
2017-08-23T16:02:21.904Z,70
2017-08-23T16:03:29.989Z,70
2017-08-23T16:04:38.077Z,70
2017-08-23T16:05:46.166Z,70
2017-08-23T16:06:54.255Z,69
2017-08-23T16:08:02.342Z,70
2017-08-23T16:09:10.433Z,70
2017-08-23T16:10:18.520Z,70